Карточка аэропорта UUYY

Внимание!
Информация на этой странице в стадии наполнения.
Если вы не увидели какой-то информации, или заметили неточность - пожалуйста сообщите нам!
Спасибо!
Команда RU-STAFF
Название аэропортаСыктывкар
Название аэропорта (англ.)Syktyvkar
Превышение339 ft. (103.3 m.)
Координаты61°38.502', 50°50.298'
Высота перехода3000 feet
Эшелон переходаQNH>=1013hPa:FL040; QNH<1013hPa:FL050; QNH<977hPa:FL060
Коды ответчика3130-3134, 5752-5757, 5770-5777, 6701-6717
Зона ОрВДСанкт-Петербург РПИ (ULLL)
Данные METARUUYY 161100Z 22005G10MPS 9999 -SHRA BKN016CB 07/05 Q0990 R18/29//51 NOSIG RMK QFE734/0979
Проноз погоды (TAF)UUYY 160800Z 1609/1709 19003G09MPS 6000 -SHRA BKN011 BKN017CB TEMPO 1609/1612 20006G14MPS 1000 SHRA BR BKN006 BKN016CB FM161200 22003G12MPS 6000 -SHRA FEW011 BKN017CB TEMPO 1612/1624 0500 SHRA FG BKN007 BKN016CB
NOTAMshow/hide NOTAM
AWOS   TABLE

Информация о ВПП

ВПП Длина ВПП (м.) Покрытие Курс ВПП Частота ILS
012500Асфальтобетон6108.3
192500Асфальтобетон186111.7

Диспетчерские позиции

Позывной Наименование органа УВД Частота
UUYY_R_APPСивкар-Круг124.600
UUYY_TWRСивкар-Старт124.600



Спутниковое изображение